Thursday, February 22, 2018, 12:07 PM EST
Back to Local

KMGJ, Montgomery Orange Co Airport

Location: Montgomery, NY, United States Lat: 41.517
Local Time: 12:07 PM EST (17:07 GMT) Lon: -74.267
Time Zone: US/Eastern Elev: 354 ft

Show me the last for .
Show Decoded

2018-02-22 10:54 METAR KMGJ 221554Z AUTO 03010KT 7SM -RA BKN060 OVC075 03/00 A3062 RMK AO2 SLP371
                 P0002 T00280000 =
2018-02-22 09:54 METAR KMGJ 221454Z AUTO 04009KT 10SM -RA OVC065 03/00 A3063 RMK AO2 SLP374 P0001
                 60002 T00330000 51018 =
2018-02-22 08:54 METAR KMGJ 221354Z AUTO 01008KT 10SM -RA OVC070 04/M01 A3062 RMK AO2 SLP372
                 P0001 T00391006 =
2018-02-22 07:54 METAR KMGJ 221254Z AUTO 04007KT 10SM -RA OVC070 04/M01 A3058 RMK AO2 SLP356
                 P0000 T00441006 =
2018-02-22 06:54 METAR KMGJ 221154Z AUTO 06009KT 10SM -RA OVC065 05/M02 A3057 RMK AO2 RAB43
                 SLP354 P0000 60000 T00501017 10094 20050 51020 =
2018-02-22 05:54 METAR KMGJ 221054Z AUTO 05011KT 10SM OVC065 06/M01 A3055 RMK AO2 SLP345
                 T00561006 =
2018-02-22 04:54 METAR KMGJ 220954Z AUTO 05012KT 10SM OVC060 06/M01 A3054 RMK AO2 SLP342
                 T00611006 =
2018-02-22 03:54 METAR KMGJ 220854Z AUTO 03007KT 10SM OVC060 07/01 A3051 RMK AO2 SLP333 T00670011
                 51019 =
2018-02-22 02:54 METAR KMGJ 220754Z AUTO 03008KT 10SM OVC055 07/01 A3050 RMK AO2 SLP330 T00670011
                 =
2018-02-22 01:54 METAR KMGJ 220654Z AUTO 05008KT 10SM OVC055 07/02 A3048 RMK AO2 SLP322 T00720017
                 =
2018-02-22 00:54 METAR KMGJ 220554Z AUTO 03011KT 10SM OVC055 09/02 A3046 RMK AO2 SLP313 T00940022
                 10167 20094 53024 =
2018-02-21 23:54 METAR KMGJ 220454Z AUTO 01005KT 10SM OVC055 11/03 A3043 RMK AO2 SLP304 T01110028
                 402390022 =
2018-02-21 22:54 METAR KMGJ 220354Z AUTO 33004KT 10SM OVC055 12/03 A3041 RMK AO2 SLP297 T01220028
                 =
2018-02-21 21:54 METAR KMGJ 220254Z AUTO 33006KT 10SM OVC055 13/05 A3039 RMK AO2 SLP289 T01280050
                 51031 =
2018-02-21 20:54 METAR KMGJ 220154Z AUTO 31008KT 10SM OVC050 14/06 A3037 RMK AO2 SLP284 T01390061
                 =
2018-02-21 19:54 METAR KMGJ 220054Z AUTO 29012KT 10SM OVC050 14/08 A3033 RMK AO2 SLP269 T01440078
                 =
2018-02-21 18:54 METAR KMGJ 212354Z AUTO 30015G21KT 10SM BKN060 OVC095 17/10 A3029 RMK AO2 SLP257
                 T01670100 10239 20167 53046 =
2018-02-21 17:54 METAR KMGJ 212254Z AUTO 33014KT 10SM SCT055 BKN120 19/12 A3024 RMK AO2 PK WND
                 33026/2237 WSHFT 2228 SLP240 T01890117 =
2018-02-21 16:54 METAR KMGJ 212154Z AUTO 22009KT 10SM OVC065 23/13 A3017 RMK AO2 SLP216 T02280133
                 =
2018-02-21 15:54 METAR KMGJ 212054Z AUTO 22011KT 10SM CLR 24/14 A3015 RMK AO2 SLP211 T02390139
                 55003 =
2018-02-21 14:54 METAR KMGJ 211954Z AUTO 20013KT 10SM CLR 23/14 A3015 RMK AO2 SLP209 T02330144 =
2018-02-21 13:54 METAR KMGJ 211854Z AUTO 22015KT 10SM CLR 23/14 A3015 RMK AO2 SLP209 T02280139 =
2018-02-21 12:54 METAR KMGJ 211754Z AUTO 21014G20KT 10SM CLR 21/14 A3016 RMK AO2 SLP215 T02110139
                 10211 20133 58027 =

Support USWX by starting your Amazon purchase here.